This is the latest recevied weather packets stored in our database for station/object DC4AT. If no packets are shown the sender has not sent any weather packets the latest 10 day(s).
| Time | Temp. | Humidity | Pressure | Rain* | Wind** | Luminosity | Snow |
|---|---|---|---|---|---|---|---|
| 1777871617 | 12.22° C | 82% | 1013 hPa | 0 mm | - | 47 W/m² | - |
| 1777871017 | 12.22° C | 81% | 1012.8 hPa | 0 mm | - | 33 W/m² | - |
| 1777870417 | 12.22° C | 80% | 1012.6 hPa | 0 mm | - | 40 W/m² | - |
| 1777869817 | 11.67° C | 80% | 1012.6 hPa | 0 mm | - | 39 W/m² | - |
| 1777869217 | 11.67° C | 80% | 1012.6 hPa | 0 mm | - | 11 W/m² | - |
| 1777868617 | 11.67° C | 79% | 1012.7 hPa | 0 mm | - | 7 W/m² | - |
| 1777868017 | 12.22° C | 79% | 1012.6 hPa | 0 mm | - | 7 W/m² | - |
| 1777867418 | 12.22° C | 79% | 1012.6 hPa | 0 mm | - | 5 W/m² | - |
| 1777866218 | 11.67° C | 80% | 1012.5 hPa | 0 mm | - | 0 W/m² | - |
| 1777865618 | 11.67° C | 79% | 1012.5 hPa | 0 mm | - | 0 W/m² | - |
| 1777865018 | 11.67° C | 78% | 1012.6 hPa | 0 mm | - | 0 W/m² | - |
| 1777863818 | 12.78° C | 76% | 1012.4 hPa | 0 mm | - | 0 W/m² | - |
| 1777839819 | 18.33° C | 51% | 1012.2 hPa | 0 mm | - | 0 W/m² | - |
| 1777839219 | 18.33° C | 50% | 1012.1 hPa | 0 mm | - | 0 W/m² | - |
| 1777838019 | 18.89° C | 49% | 1012.1 hPa | 0 mm | - | 0 W/m² | - |
| 1777837419 | 18.89° C | 51% | 1012 hPa | 0 mm | - | 0 W/m² | - |
| 1777836819 | 18.89° C | 50% | 1011.7 hPa | 0 mm | - | 0 W/m² | - |
| 1777836219 | 18.89° C | 50% | 1011.6 hPa | 0 mm | - | 0 W/m² | - |
| 1777835619 | 18.89° C | 51% | 1011.3 hPa | 0 mm | - | 0 W/m² | - |
| 1777834419 | 19.44° C | 49% | 1011 hPa | 0 mm | - | 0 W/m² | - |
| 1777833219 | 19.44° C | 46% | 1010.9 hPa | 0 mm | - | 0 W/m² | - |
| 1777832019 | 20° C | 45% | 1010.8 hPa | 0 mm | - | 14 W/m² | - |
| 1777831419 | 20° C | 44% | 1010.7 hPa | 0 mm | - | 21 W/m² | - |
| 1777827219 | 21.11° C | 40% | 1010.6 hPa | 0 mm | - | 83 W/m² | - |
| 1777821819 | 22.22° C | 40% | 1010.9 hPa | 0 mm | - | 190 W/m² | - |
* Rain latest hour (hover to see other rain measurements)
** Current wind speed in m/s (hover to see current wind gust speed)